Time;durP1;ratioP1;P1;durP2;ratioP2;P2;SDS_P1;SDS_P2;PMS_P1;PMS_P2;Temp;Humidity;BMP_temperature;BMP_pressure;BME280_temperature;BME280_humidity;BME280_pressure;Samples;Min_cycle;Max_cycle;Signal;HPM_P1;HPM_P2
2023/12/16 00:00:52;;;;;;;24.38;7.80;;;;;;;9.99;67.40;103135.22;5000743;28;20125;-45
2023/12/16 00:03:17;;;;;;;25.48;7.10;;;;;;;9.99;67.38;103141.38;4993544;28;20034;-39
2023/12/16 00:05:43;;;;;;;24.48;7.47;;;;;;;10.01;67.26;103142.22;5014336;28;20107;-39
2023/12/16 00:08:09;;;;;;;18.90;7.35;;;;;;;9.85;67.82;103148.63;5014201;28;20037;-40
2023/12/16 00:10:34;;;;;;;21.10;7.82;;;;;;;9.98;67.46;103152.78;5006117;28;20026;-39
2023/12/16 00:13:00;;;;;;;26.67;8.13;;;;;;;10.06;67.28;103155.28;5006362;28;20026;-40
2023/12/16 00:15:25;;;;;;;25.08;8.32;;;;;;;9.74;67.83;103149.66;5002761;28;20038;-39
2023/12/16 00:17:50;;;;;;;29.30;8.38;;;;;;;9.99;67.60;103159.78;5004025;28;20045;-40
2023/12/16 00:20:16;;;;;;;18.02;6.80;;;;;;;9.90;67.62;103150.28;5008464;28;20022;-39
2023/12/16 00:22:42;;;;;;;20.23;7.30;;;;;;;9.80;68.31;103159.22;5002358;28;20116;-41
2023/12/16 00:25:08;;;;;;;26.13;8.05;;;;;;;9.84;67.86;103158.25;5009747;28;20026;-41
2023/12/16 00:27:34;;;;;;;19.13;6.40;;;;;;;9.81;67.93;103162.69;5002835;28;20073;-41
2023/12/16 00:29:59;;;;;;;27.77;7.85;;;;;;;9.96;67.71;103165.09;5004900;28;20458;-41
2023/12/16 00:32:25;;;;;;;18.88;7.60;;;;;;;10.00;67.29;103177.31;5003551;28;20038;-41
2023/12/16 00:34:50;;;;;;;24.92;8.27;;;;;;;9.87;67.63;103175.75;5007819;28;20448;-41
2023/12/16 00:37:16;;;;;;;15.30;6.70;;;;;;;9.82;68.04;103156.56;5008148;28;20026;-41
2023/12/16 00:39:41;;;;;;;17.98;6.70;;;;;;;10.07;67.30;103168.41;5005901;28;20034;-41
2023/12/16 00:42:07;;;;;;;21.83;6.50;;;;;;;10.07;67.22;103171.03;5004211;28;20042;-41
2023/12/16 00:44:33;;;;;;;23.75;8.23;;;;;;;10.02;67.46;103167.63;5003330;28;20045;-41
2023/12/16 00:47:00;;;;;;;24.23;7.57;;;;;;;10.11;67.25;103178.88;5002773;28;20029;-40
2023/12/16 00:49:25;;;;;;;21.35;7.78;;;;;;;10.06;67.36;103181.59;5002028;28;20038;-41
2023/12/16 00:51:51;;;;;;;30.30;8.18;;;;;;;10.06;67.44;103190.34;5004512;28;20044;-41
2023/12/16 00:54:16;;;;;;;20.02;7.75;;;;;;;10.04;67.28;103184.25;5002945;28;20489;-41
2023/12/16 00:56:42;;;;;;;20.70;7.20;;;;;;;10.20;67.11;103184.84;5006595;28;20531;-41
2023/12/16 00:59:07;;;;;;;26.92;7.60;;;;;;;10.07;67.11;103192.06;5003240;28;20041;-42
2023/12/16 01:01:32;;;;;;;27.20;8.40;;;;;;;10.07;67.20;103199.13;5006697;28;20037;-41
2023/12/16 01:03:58;;;;;;;30.55;8.18;;;;;;;10.20;67.00;103200.63;4994314;28;20026;-41
2023/12/16 01:06:24;;;;;;;21.75;8.63;;;;;;;10.20;66.79;103200.63;5003763;28;20041;-42
2023/12/16 01:08:49;;;;;;;29.23;7.60;;;;;;;10.25;66.85;103191.81;5004417;28;20030;-42
2023/12/16 01:11:14;;;;;;;26.33;6.60;;;;;;;10.36;66.42;103203.00;5003396;28;20026;-41
2023/12/16 01:13:40;;;;;;;20.58;6.95;;;;;;;10.37;66.43;103187.19;4999614;28;20022;-42
2023/12/16 01:16:06;;;;;;;23.73;7.35;;;;;;;10.29;66.46;103190.84;5001605;28;20048;-42
2023/12/16 01:18:31;;;;;;;21.00;6.60;;;;;;;10.44;65.89;103192.38;5006934;28;20509;-42
2023/12/16 01:20:57;;;;;;;20.58;6.07;;;;;;;10.48;65.68;103188.81;5005075;28;20040;-41
2023/12/16 01:23:22;;;;;;;17.23;4.90;;;;;;;10.42;65.89;103188.91;5002559;28;20035;-41
2023/12/16 01:25:47;;;;;;;14.30;4.78;;;;;;;10.44;65.56;103187.97;5009587;28;20030;-41
2023/12/16 01:28:13;;;;;;;23.25;7.03;;;;;;;10.44;65.78;103181.84;5002180;28;20397;-42
2023/12/16 01:30:39;;;;;;;18.70;7.95;;;;;;;10.37;65.97;103181.06;5004195;28;20042;-42
2023/12/16 01:33:04;;;;;;;24.08;6.93;;;;;;;10.44;65.65;103180.06;5005340;28;20696;-41
2023/12/16 01:35:30;;;;;;;16.92;5.68;;;;;;;10.32;65.60;103191.69;5011371;28;20038;-41
2023/12/16 01:37:55;;;;;;;17.98;6.53;;;;;;;10.50;65.70;103192.28;5007042;28;20045;-41
2023/12/16 01:40:21;;;;;;;25.05;6.95;;;;;;;10.41;65.80;103181.91;5027601;28;20033;-41
2023/12/16 01:42:46;;;;;;;22.52;6.35;;;;;;;10.39;65.65;103175.78;5010340;28;20061;-42
2023/12/16 01:45:15;;;;;;;23.52;6.63;;;;;;;10.44;65.54;103181.84;5005806;28;20037;-41
2023/12/16 01:47:41;;;;;;;18.67;7.07;;;;;;;10.42;65.73;103183.63;5005342;28;20084;-42
2023/12/16 01:50:07;;;;;;;18.35;6.30;;;;;;;10.43;65.77;103182.75;5003999;28;20041;-41
2023/12/16 01:52:33;;;;;;;13.35;5.30;;;;;;;10.35;66.07;103183.75;5003406;28;20061;-41
2023/12/16 01:54:59;;;;;;;27.58;7.35;;;;;;;10.20;66.50;103184.00;5006031;28;20130;-41
2023/12/16 01:57:24;;;;;;;21.45;5.65;;;;;;;10.39;66.01;103178.44;5010157;28;20120;-40
2023/12/16 01:59:50;;;;;;;18.35;6.55;;;;;;;10.36;66.00;103185.44;5011100;28;20127;-40
2023/12/16 02:02:17;;;;;;;20.38;5.82;;;;;;;10.38;65.99;103182.84;5014019;28;20033;-40
2023/12/16 02:04:43;;;;;;;23.30;6.18;;;;;;;10.31;66.12;103186.41;4999042;28;20042;-39
2023/12/16 02:07:08;;;;;;;19.60;5.97;;;;;;;10.17;66.86;103186.69;5012775;28;20034;-39
2023/12/16 02:09:33;;;;;;;27.27;6.95;;;;;;;10.12;67.10;103188.50;5004266;28;20041;-40
2023/12/16 02:11:59;;;;;;;16.23;5.53;;;;;;;10.34;66.40;103182.00;5005007;28;20041;-39
2023/12/16 02:14:24;;;;;;;16.25;6.00;;;;;;;10.17;66.54;103184.03;5003633;28;20045;-40
2023/12/16 02:16:50;;;;;;;27.73;5.72;;;;;;;10.26;66.34;103190.91;4998819;28;20026;-40
2023/12/16 02:19:26;;;;;;;21.13;6.70;;;;;;;10.34;66.64;103194.28;4999419;28;20041;-39
2023/12/16 02:21:52;;;;;;;27.33;6.10;;;;;;;10.31;66.52;103182.03;5008573;28;20034;-41
2023/12/16 02:24:18;;;;;;;20.08;6.32;;;;;;;10.43;66.22;103190.66;5006925;28;20121;-41
2023/12/16 02:26:44;;;;;;;19.67;6.18;;;;;;;10.35;66.24;103196.91;5005907;28;20117;-41
2023/12/16 02:29:09;;;;;;;21.23;6.72;;;;;;;10.37;66.40;103186.31;5004501;28;20103;-40
2023/12/16 02:31:35;;;;;;;21.35;5.75;;;;;;;10.29;66.80;103189.09;5001058;28;20084;-40
2023/12/16 02:34:00;;;;;;;24.95;5.85;;;;;;;10.43;66.37;103185.38;5004292;28;20030;-40
2023/12/16 02:36:26;;;;;;;22.95;6.10;;;;;;;10.21;66.45;103190.97;5010169;28;20064;-40
2023/12/16 02:38:51;;;;;;;15.20;3.45;;;;;;;10.42;66.24;103186.28;4989093;28;20156;-40
2023/12/16 02:41:17;;;;;;;17.67;5.55;;;;;;;10.40;66.41;103195.97;5014084;28;20038;-41
2023/12/16 02:43:42;;;;;;;21.80;4.82;;;;;;;10.33;66.34;103206.56;4993447;28;20401;-40
2023/12/16 02:46:09;;;;;;;24.05;5.93;;;;;;;10.16;67.37;103196.31;5004651;28;20025;-43
2023/12/16 02:48:34;;;;;;;18.60;5.43;;;;;;;10.40;66.34;103185.44;5004850;28;20092;-40
2023/12/16 02:51:00;;;;;;;25.30;5.88;;;;;;;10.44;66.35;103185.34;5004407;28;20037;-39
2023/12/16 02:53:27;;;;;;;16.90;5.97;;;;;;;10.48;66.08;103180.91;5005508;28;20025;-40
2023/12/16 02:55:52;;;;;;;15.82;4.97;;;;;;;10.45;66.25;103178.31;5002400;28;20030;-41
2023/12/16 02:58:18;;;;;;;27.15;6.35;;;;;;;10.30;66.28;103174.16;5001819;28;20038;-40
2023/12/16 03:00:43;;;;;;;22.23;4.95;;;;;;;10.39;66.49;103178.44;5002574;28;20468;-39
2023/12/16 03:03:09;;;;;;;19.02;4.88;;;;;;;10.31;66.52;103176.78;4990180;28;20116;-41
2023/12/16 03:05:34;;;;;;;23.77;5.28;;;;;;;10.41;66.47;103172.25;5006018;28;20056;-40
2023/12/16 03:07:59;;;;;;;17.77;4.88;;;;;;;10.42;66.16;103183.63;5004830;28;20040;-40
2023/12/16 03:10:25;;;;;;;18.50;5.07;;;;;;;10.39;66.20;103191.59;5004077;28;20767;-40
2023/12/16 03:12:50;;;;;;;11.43;5.05;;;;;;;10.62;65.83;103192.06;5003952;28;20034;-40
2023/12/16 03:15:16;;;;;;;21.05;6.30;;;;;;;10.20;67.11;103194.53;5000545;28;20034;-41
2023/12/16 03:17:43;;;;;;;20.80;4.53;;;;;;;10.52;65.94;103204.50;5003659;28;20037;-40
2023/12/16 03:20:09;;;;;;;19.30;5.25;;;;;;;10.37;66.34;103195.06;5006791;28;20093;-41
2023/12/16 03:22:35;;;;;;;17.27;4.28;;;;;;;10.41;65.81;103200.31;5002313;28;20063;-41
2023/12/16 03:25:00;;;;;;;17.35;4.25;;;;;;;10.48;65.96;103194.06;4997115;28;20496;-40
2023/12/16 03:27:26;;;;;;;24.05;4.63;;;;;;;10.46;66.02;103201.97;5001363;28;20026;-41
2023/12/16 03:29:51;;;;;;;18.35;4.78;;;;;;;10.50;65.98;103201.03;4998201;28;20034;-40
2023/12/16 03:32:17;;;;;;;21.90;4.90;;;;;;;10.50;65.72;103210.72;5003497;28;20030;-40
2023/12/16 03:34:42;;;;;;;16.35;4.18;;;;;;;10.33;66.39;103211.84;5005346;28;20030;-40
2023/12/16 03:37:08;;;;;;;18.15;5.13;;;;;;;10.36;66.25;103214.38;4998178;28;20053;-40
2023/12/16 03:39:33;;;;;;;23.65;4.70;;;;;;;10.21;66.66;103217.28;5002485;28;21315;-40
2023/12/16 03:41:58;;;;;;;14.02;4.00;;;;;;;10.21;66.48;103218.16;4993085;28;20060;-41
2023/12/16 03:44:24;;;;;;;15.07;4.22;;;;;;;10.34;66.35;103216.22;5001879;28;20025;-40
2023/12/16 03:46:49;;;;;;;21.83;4.90;;;;;;;10.28;66.42;103213.66;4998240;28;20078;-40
2023/12/16 03:49:15;;;;;;;20.15;4.53;;;;;;;10.46;65.82;103216.91;4999872;28;20511;-40
2023/12/16 03:51:40;;;;;;;19.58;4.53;;;;;;;10.43;65.95;103211.69;5002602;28;20413;-41
2023/12/16 03:54:06;;;;;;;16.13;4.55;;;;;;;10.21;66.35;103206.75;4999158;28;20031;-40
2023/12/16 03:56:31;;;;;;;18.50;3.70;;;;;;;10.28;66.17;103208.41;5001531;28;20108;-40
2023/12/16 03:58:57;;;;;;;25.17;4.63;;;;;;;10.40;66.00;103211.75;5002366;28;20060;-41
2023/12/16 04:01:23;;;;;;;16.13;5.32;;;;;;;10.33;66.00;103201.31;4994036;28;20049;-41
2023/12/16 04:03:48;;;;;;;17.52;3.47;;;;;;;10.21;65.88;103206.75;4998899;28;20062;-40
2023/12/16 04:06:14;;;;;;;11.35;2.92;;;;;;;10.44;65.68;103197.66;5003143;28;20093;-40
2023/12/16 04:08:41;;;;;;;14.77;3.53;;;;;;;10.47;65.40;103189.69;5002931;28;20041;-41
2023/12/16 04:11:07;;;;;;;10.63;2.72;;;;;;;10.41;65.12;103193.31;4999722;28;20081;-40
2023/12/16 04:13:34;;;;;;;14.93;3.58;;;;;;;10.24;65.93;103193.56;5000322;28;20017;-40
2023/12/16 04:16:00;;;;;;;16.25;3.25;;;;;;;10.41;65.15;103182.78;4998006;28;20056;-40
2023/12/16 04:18:26;;;;;;;17.08;3.63;;;;;;;10.36;65.36;103190.72;4996502;28;20128;-41
2023/12/16 04:20:51;;;;;;;11.40;3.45;;;;;;;10.31;65.40;103191.69;4997979;28;20465;-41
2023/12/16 04:23:17;;;;;;;22.67;4.57;;;;;;;10.37;65.17;103181.91;5001768;28;20089;-39
2023/12/16 04:25:42;;;;;;;11.23;3.88;;;;;;;10.46;64.96;103187.97;5001646;28;20033;-39
2023/12/16 04:28:07;;;;;;;17.25;3.85;;;;;;;10.33;64.80;103188.16;4998304;28;20095;-40
2023/12/16 04:30:33;;;;;;;11.55;2.97;;;;;;;10.34;64.86;103183.75;5005474;28;20037;-41
2023/12/16 04:32:59;;;;;;;15.05;3.88;;;;;;;10.45;64.63;103192.34;5003765;28;20030;-40
2023/12/16 04:35:24;;;;;;;9.68;3.63;;;;;;;10.36;64.91;103206.50;5007628;28;20210;-40
2023/12/16 04:37:50;;;;;;;11.85;3.28;;;;;;;10.29;65.16;103204.00;4996403;28;20058;-39
2023/12/16 04:40:15;;;;;;;19.45;4.88;;;;;;;10.04;65.57;103205.31;4997979;28;20485;-40
2023/12/16 04:42:42;;;;;;;16.67;3.33;;;;;;;10.26;65.14;103207.56;5004409;28;20030;-40
2023/12/16 04:45:08;;;;;;;10.20;3.97;;;;;;;10.24;65.03;103217.25;4995760;28;20030;-39
2023/12/16 04:47:36;;;;;;;12.40;3.75;;;;;;;10.01;65.29;103221.13;5003564;28;20033;-39
2023/12/16 04:50:03;;;;;;;16.65;4.38;;;;;;;10.07;65.69;103223.63;4998967;28;20451;-39
2023/12/16 04:52:28;;;;;;;11.48;3.95;;;;;;;9.75;66.30;103238.19;5005134;28;20514;-40
2023/12/16 04:54:54;;;;;;;11.82;3.00;;;;;;;9.86;66.37;103239.78;5001883;28;20034;-40
2023/12/16 04:57:19;;;;;;;12.82;2.88;;;;;;;10.02;66.08;103241.28;5006248;28;20536;-40
2023/12/16 04:59:45;;;;;;;12.68;3.80;;;;;;;9.96;65.98;103236.09;5006546;28;20154;-40
2023/12/16 05:02:11;;;;;;;16.42;3.53;;;;;;;10.14;65.56;103237.56;4994736;28;20038;-41
2023/12/16 05:04:36;;;;;;;20.77;3.72;;;;;;;9.96;66.04;103246.63;5004294;28;20029;-40
2023/12/16 05:07:02;;;;;;;16.33;4.75;;;;;;;9.88;66.40;103248.50;5004934;28;20061;-40
2023/12/16 05:09:27;;;;;;;15.65;5.00;;;;;;;10.03;65.89;103250.91;5007462;28;20065;-40
2023/12/16 05:11:52;;;;;;;14.00;4.28;;;;;;;9.82;66.67;103256.47;5008391;28;20043;-40
2023/12/16 05:14:18;;;;;;;21.35;5.13;;;;;;;10.12;65.71;103262.16;5001007;28;20037;-41
2023/12/16 05:16:43;;;;;;;12.98;4.45;;;;;;;10.04;65.64;103257.91;5005383;28;20069;-40
2023/12/16 05:19:09;;;;;;;18.17;4.60;;;;;;;9.98;65.33;103258.00;5002055;28;20061;-41
2023/12/16 05:21:34;;;;;;;15.10;4.30;;;;;;;10.02;65.55;103243.91;5000443;28;20034;-40
2023/12/16 05:24:00;;;;;;;14.20;5.28;;;;;;;10.11;65.40;103253.44;5005790;28;20117;-40
2023/12/16 05:26:25;;;;;;;20.13;5.82;;;;;;;9.99;65.63;103254.47;5005010;28;20038;-40
2023/12/16 05:28:51;;;;;;;12.40;5.57;;;;;;;9.91;65.96;103248.44;5001219;28;20076;-40
2023/12/16 05:31:16;;;;;;;12.25;5.70;;;;;;;10.14;65.34;103257.75;5006671;28;20022;-40
2023/12/16 05:33:43;;;;;;;16.20;5.25;;;;;;;9.60;65.88;103246.28;5000122;28;20098;-41
2023/12/16 05:36:09;;;;;;;15.82;4.75;;;;;;;10.05;65.59;103250.88;5009317;28;20778;-41
2023/12/16 05:38:34;;;;;;;16.13;4.55;;;;;;;10.10;65.45;103240.28;5005311;28;20574;-41
2023/12/16 05:41:00;;;;;;;17.23;5.53;;;;;;;9.91;65.72;103251.06;5004956;28;20037;-40
2023/12/16 05:43:26;;;;;;;12.77;4.97;;;;;;;10.09;65.49;103254.31;5011328;28;20033;-40
2023/12/16 05:45:51;;;;;;;12.77;4.53;;;;;;;10.17;65.49;103245.41;4994697;28;20058;-40
2023/12/16 05:48:17;;;;;;;13.77;4.93;;;;;;;10.29;64.87;103260.16;5006055;28;20044;-40
2023/12/16 05:50:42;;;;;;;16.85;5.93;;;;;;;10.32;65.12;103254.84;5003618;28;20040;-41
2023/12/16 05:53:08;;;;;;;15.52;5.03;;;;;;;10.35;64.87;103256.53;4992066;28;20034;-41
2023/12/16 05:55:33;;;;;;;16.80;5.22;;;;;;;10.32;64.77;103244.31;5004389;28;20488;-41
2023/12/16 05:57:59;;;;;;;22.77;6.03;;;;;;;10.22;65.37;103234.81;5003811;28;20033;-40
2023/12/16 06:00:25;;;;;;;20.10;5.72;;;;;;;9.82;66.37;103231.06;5008430;28;20085;-41
2023/12/16 06:02:50;;;;;;;14.65;4.57;;;;;;;9.97;66.13;103232.56;5013139;28;20038;-40
2023/12/16 06:05:16;;;;;;;12.60;5.07;;;;;;;10.02;65.51;103237.75;5003124;28;20029;-39
2023/12/16 06:07:41;;;;;;;20.15;6.22;;;;;;;10.24;65.22;103238.28;5003160;28;20400;-41
2023/12/16 06:10:07;;;;;;;17.85;5.63;;;;;;;10.27;65.03;103234.75;5004271;28;20061;-41
2023/12/16 06:12:32;;;;;;;21.63;6.05;;;;;;;10.38;64.81;103232.84;5002168;28;20254;-40
2023/12/16 06:14:58;;;;;;;19.80;5.63;;;;;;;10.25;64.78;103255.81;5007430;28;20057;-40
2023/12/16 06:17:23;;;;;;;10.10;5.05;;;;;;;10.41;64.50;103258.22;5006162;28;20099;-41
2023/12/16 06:19:49;;;;;;;16.25;5.25;;;;;;;10.29;64.88;103268.03;5004252;28;20030;-40
2023/12/16 06:22:14;;;;;;;14.43;4.22;;;;;;;10.30;64.84;103264.53;5003930;28;20036;-41
2023/12/16 06:24:40;;;;;;;14.40;3.05;;;;;;;10.46;64.40;103270.41;5003731;28;20076;-40
2023/12/16 06:27:06;;;;;;;12.25;4.65;;;;;;;10.52;64.41;103265.06;5004268;28;20522;-40
2023/12/16 06:29:31;;;;;;;18.25;5.20;;;;;;;10.44;64.32;103253.78;5005632;28;20026;-40
2023/12/16 06:31:58;;;;;;;21.98;5.28;;;;;;;10.42;64.56;103259.97;5000127;28;20084;-40
2023/12/16 06:34:23;;;;;;;12.55;5.20;;;;;;;10.41;64.38;103258.22;5002686;28;20062;-41
2023/12/16 06:36:49;;;;;;;11.98;4.88;;;;;;;10.35;64.25;103246.00;5002727;28;20053;-41
2023/12/16 06:39:15;;;;;;;13.93;5.15;;;;;;;10.16;64.68;103245.44;5005587;28;20042;-41
2023/12/16 06:41:40;;;;;;;13.05;4.30;;;;;;;10.25;64.36;103250.56;5007907;28;20041;-40
2023/12/16 06:44:06;;;;;;;17.77;4.55;;;;;;;10.30;64.49;103259.25;5008531;28;20065;-40
2023/12/16 06:46:32;;;;;;;16.50;4.90;;;;;;;9.90;65.34;103273.88;5011854;28;20045;-40
2023/12/16 06:48:57;;;;;;;15.02;4.60;;;;;;;9.92;65.24;103263.34;5002435;28;20038;-40
2023/12/16 06:51:23;;;;;;;22.25;5.38;;;;;;;10.14;64.85;103263.03;5007494;28;20837;-40
2023/12/16 06:53:48;;;;;;;13.27;4.22;;;;;;;9.90;65.33;103265.13;5001917;28;20042;-40
2023/12/16 06:56:14;;;;;;;13.68;5.05;;;;;;;10.00;65.18;103252.69;5009171;28;20607;-40
2023/12/16 06:58:40;;;;;;;21.85;6.03;;;;;;;10.09;64.86;103256.94;5004339;28;20058;-41
2023/12/16 07:01:09;;;;;;;16.35;4.75;;;;;;;10.10;64.64;103263.94;5008493;28;20079;-41
2023/12/16 07:03:34;;;;;;;16.67;4.43;;;;;;;9.97;65.07;103264.13;5007045;28;20025;-40
2023/12/16 07:06:01;;;;;;;20.73;4.82;;;;;;;9.82;65.42;103262.63;5008506;28;20041;-40
2023/12/16 07:08:26;;;;;;;16.30;5.15;;;;;;;9.98;64.85;103262.41;5001002;28;20025;-40
2023/12/16 07:10:52;;;;;;;16.92;5.00;;;;;;;9.78;65.02;103255.66;5003748;28;20049;-39
2023/12/16 07:13:17;;;;;;;23.30;6.20;;;;;;;9.54;65.63;103267.38;5001845;28;20040;-39
2023/12/16 07:15:43;;;;;;;27.63;5.53;;;;;;;9.77;65.08;103281.06;5004532;28;20743;-40
2023/12/16 07:18:08;;;;;;;16.20;4.80;;;;;;;9.74;65.39;103275.88;5001565;28;20041;-40
2023/12/16 07:20:34;;;;;;;16.85;4.53;;;;;;;9.85;65.17;103272.22;5001596;28;20038;-40
2023/12/16 07:23:00;;;;;;;18.90;5.47;;;;;;;9.90;64.90;103276.50;5004272;28;20034;-41
2023/12/16 07:25:25;;;;;;;14.35;4.40;;;;;;;9.89;64.79;103263.41;5000893;28;20030;-40
2023/12/16 07:27:51;;;;;;;17.00;5.43;;;;;;;9.73;64.57;103247.84;5001946;28;20382;-40
2023/12/16 07:30:16;;;;;;;16.08;5.30;;;;;;;9.79;64.90;103246.88;4988671;28;20060;-40
2023/12/16 07:32:42;;;;;;;19.85;5.32;;;;;;;9.83;64.76;103245.06;5005404;28;20030;-40
2023/12/16 07:35:12;;;;;;;18.55;4.82;;;;;;;9.95;64.69;103259.81;5003633;28;20026;-41
2023/12/16 07:37:40;;;;;;;21.40;4.88;;;;;;;10.11;64.25;103269.22;5003194;28;20082;-41
2023/12/16 07:40:07;;;;;;;16.02;4.75;;;;;;;9.94;64.23;103266.81;5007003;28;20033;-41
2023/12/16 07:42:32;;;;;;;21.27;4.93;;;;;;;9.75;64.67;103261.84;5003644;28;20123;-41
2023/12/16 07:44:58;;;;;;;18.45;4.97;;;;;;;9.84;64.35;103255.56;5003683;28;20113;-40
2023/12/16 07:47:23;;;;;;;18.27;5.75;;;;;;;9.81;64.55;103254.72;4997846;28;20371;-40
2023/12/16 07:49:49;;;;;;;14.45;5.20;;;;;;;9.68;64.84;103260.16;5011690;28;20057;-41
2023/12/16 07:52:16;;;;;;;22.75;5.72;;;;;;;9.63;65.28;103264.59;5002817;28;20038;-41
2023/12/16 07:54:42;;;;;;;15.90;4.93;;;;;;;9.57;65.22;103267.34;5002677;28;20040;-41
2023/12/16 07:57:07;;;;;;;13.07;4.75;;;;;;;9.77;64.95;103273.19;5002708;28;20030;-41
2023/12/16 07:59:33;;;;;;;19.92;5.57;;;;;;;9.75;64.63;103271.47;5008146;28;20038;-41
2023/12/16 08:02:00;;;;;;;16.55;4.63;;;;;;;9.56;65.36;103276.97;5007127;28;20026;-41
2023/12/16 08:04:25;;;;;;;24.40;5.75;;;;;;;9.64;65.08;103268.13;5003510;28;20034;-41
2023/12/16 08:06:50;;;;;;;25.75;5.13;;;;;;;9.74;64.83;103261.84;4999651;28;20034;-41
2023/12/16 08:09:16;;;;;;;9.95;5.18;;;;;;;9.76;64.95;103263.53;5005476;28;20373;-40
2023/12/16 08:11:41;;;;;;;18.17;6.15;;;;;;;9.76;64.97;103263.53;5001859;28;20393;-40
2023/12/16 08:14:07;;;;;;;12.38;3.47;;;;;;;9.73;65.09;103263.63;5002765;28;20030;-42
2023/12/16 08:16:33;;;;;;;20.52;6.03;;;;;;;9.64;65.49;103263.72;5003097;28;20036;-41
2023/12/16 08:18:58;;;;;;;15.48;5.20;;;;;;;9.81;65.14;103270.50;5002567;28;20035;-41
2023/12/16 08:21:24;;;;;;;18.52;6.18;;;;;;;9.86;65.08;103264.28;4996263;28;20089;-41
2023/12/16 08:23:49;;;;;;;15.30;5.45;;;;;;;9.77;65.28;103272.31;5003000;28;20522;-41
2023/12/16 08:26:14;;;;;;;15.18;6.25;;;;;;;9.68;65.71;103264.56;5001806;28;20464;-41
2023/12/16 08:28:41;;;;;;;17.77;3.65;;;;;;;9.65;65.85;103262.84;5007713;28;20497;-40
2023/12/16 08:31:07;;;;;;;12.75;4.00;;;;;;;9.68;65.95;103259.31;5001732;28;20413;-46
2023/12/16 08:33:32;;;;;;;9.82;2.97;;;;;;;9.86;65.55;103252.91;5002600;28;20045;-40
2023/12/16 08:35:58;;;;;;;14.73;5.57;;;;;;;10.00;64.83;103247.44;5002739;28;20030;-40
2023/12/16 08:38:23;;;;;;;21.75;6.22;;;;;;;9.85;64.91;103256.44;5007661;28;20030;-40
2023/12/16 08:40:49;;;;;;;14.27;4.10;;;;;;;9.88;65.27;103252.00;5009670;28;20036;-39
2023/12/16 08:43:14;;;;;;;26.55;6.35;;;;;;;9.62;65.92;103249.72;5013154;28;20042;-38
2023/12/16 08:45:40;;;;;;;24.63;7.82;;;;;;;9.83;65.62;103247.69;5001534;28;20104;-40
2023/12/16 08:48:05;;;;;;;17.98;6.03;;;;;;;9.89;65.17;103247.63;5004316;28;20034;-41
2023/12/16 08:50:31;;;;;;;27.65;7.35;;;;;;;9.82;65.54;103248.59;4997124;28;20084;-40
2023/12/16 08:52:56;;;;;;;24.48;6.22;;;;;;;9.67;65.88;103245.28;5007467;28;20441;-40
2023/12/16 08:55:24;;;;;;;19.27;5.65;;;;;;;9.87;65.49;103254.66;5002671;28;20037;-40
2023/12/16 08:57:50;;;;;;;20.45;6.30;;;;;;;10.00;65.38;103253.59;5006677;28;20045;-40
2023/12/16 09:00:16;;;;;;;19.63;6.32;;;;;;;9.86;65.49;103268.69;4998476;28;20030;-41
2023/12/16 09:02:41;;;;;;;17.67;6.47;;;;;;;9.71;66.02;103270.66;5001124;28;20558;-40
2023/12/16 09:05:07;;;;;;;18.52;5.93;;;;;;;9.91;65.68;103272.09;5004494;28;20037;-41
2023/12/16 09:07:34;;;;;;;29.02;8.18;;;;;;;9.80;65.81;103263.50;5003513;28;20140;-39
2023/12/16 09:09:59;;;;;;;14.40;5.88;;;;;;;10.06;65.20;103264.00;4994242;28;20026;-39
2023/12/16 09:12:24;;;;;;;25.27;7.63;;;;;;;9.90;65.78;103263.38;5002602;28;20085;-40
2023/12/16 09:14:50;;;;;;;16.65;6.65;;;;;;;9.88;65.46;103253.78;5012135;28;20042;-40
2023/12/16 09:17:15;;;;;;;20.55;6.70;;;;;;;9.75;66.06;103255.69;4998908;28;20408;-40
2023/12/16 09:19:41;;;;;;;16.35;6.28;;;;;;;9.90;65.45;103265.13;4999668;28;20113;-40
2023/12/16 09:22:06;;;;;;;16.55;6.97;;;;;;;9.97;65.04;103256.25;5006589;28;20053;-40
2023/12/16 09:24:33;;;;;;;16.13;5.18;;;;;;;9.98;65.15;103258.00;4997771;28;20033;-40
2023/12/16 09:26:59;;;;;;;16.05;5.65;;;;;;;10.17;64.85;103265.63;5001455;28;20029;-40
2023/12/16 09:29:25;;;;;;;21.25;6.43;;;;;;;10.18;64.49;103256.81;5000696;28;20499;-40
2023/12/16 09:31:51;;;;;;;15.93;5.75;;;;;;;10.29;64.15;103268.03;5001204;28;20034;-40
2023/12/16 09:34:16;;;;;;;10.18;5.43;;;;;;;10.30;64.12;103263.63;5003263;28;20033;-40
2023/12/16 09:36:42;;;;;;;21.10;5.35;;;;;;;10.43;63.85;103253.81;4988515;28;20034;-40
2023/12/16 09:39:10;;;;;;;19.55;5.55;;;;;;;10.18;64.21;103269.97;5002823;28;20047;-40
2023/12/16 09:41:42;;;;;;;19.02;5.07;;;;;;;10.26;63.97;103262.81;5004140;28;20034;-40
2023/12/16 09:44:09;;;;;;;14.45;4.82;;;;;;;10.31;64.02;103260.09;4993975;28;20041;-40
2023/12/16 09:46:36;;;;;;;17.90;4.70;;;;;;;10.25;64.10;103257.59;5001007;28;20044;-41
2023/12/16 09:49:02;;;;;;;14.77;5.93;;;;;;;10.47;63.75;103260.78;4999895;28;20034;-41
2023/12/16 09:51:28;;;;;;;16.27;5.28;;;;;;;10.48;63.63;103265.16;4999275;28;20108;-41
2023/12/16 09:53:54;;;;;;;16.58;5.50;;;;;;;10.41;63.46;103272.28;5003006;28;20030;-41
2023/12/16 09:56:20;;;;;;;15.45;5.05;;;;;;;10.42;63.75;103273.13;5002743;28;20040;-41
2023/12/16 09:58:48;;;;;;;14.60;4.50;;;;;;;10.39;63.86;103271.44;5003056;28;20752;-40
2023/12/16 10:01:14;;;;;;;14.85;4.65;;;;;;;10.36;63.89;103276.72;4998415;28;20506;-44
2023/12/16 10:03:41;;;;;;;18.65;5.60;;;;;;;10.25;63.87;103276.88;4996639;28;20037;-40
2023/12/16 10:06:10;;;;;;;12.18;4.30;;;;;;;10.31;63.45;103261.00;4995677;28;20497;-40
2023/12/16 10:08:37;;;;;;;11.95;5.47;;;;;;;10.37;62.95;103254.75;5000502;28;20030;-40
2023/12/16 10:11:04;;;;;;;9.45;3.88;;;;;;;10.56;63.09;103255.34;5005820;28;20037;-41
2023/12/16 10:13:52;;;;;;;19.45;4.82;;;;;;;10.33;63.12;103240.78;5002098;28;20034;-40
2023/12/16 10:16:18;;;;;;;22.65;5.20;;;;;;;10.76;62.36;103240.97;5002586;28;21039;-40
2023/12/16 10:18:48;;;;;;;14.50;3.90;;;;;;;10.70;62.09;103243.69;5002368;28;20049;-41
2023/12/16 10:21:23;;;;;;;13.55;2.95;;;;;;;10.72;62.43;103231.38;5001125;28;20029;-41
2023/12/16 10:23:49;;;;;;;13.10;3.20;;;;;;;10.75;61.91;103240.06;4981527;28;20140;-40
2023/12/16 10:26:16;;;;;;;12.27;4.22;;;;;;;10.78;61.91;103239.16;5028261;28;20120;-40
2023/12/16 10:28:45;;;;;;;11.77;3.40;;;;;;;10.76;61.35;103247.06;5021200;28;20037;-40
2023/12/16 10:31:11;;;;;;;11.98;4.35;;;;;;;10.61;61.38;103245.59;5018669;28;20156;-40
2023/12/16 10:33:36;;;;;;;18.58;4.53;;;;;;;10.83;60.97;103239.94;5021915;28;20033;-40
2023/12/16 10:36:02;;;;;;;12.98;3.42;;;;;;;10.88;61.21;103234.59;5015345;28;20025;-41
2023/12/16 10:38:27;;;;;;;10.85;3.55;;;;;;;10.66;61.68;103230.56;5024795;28;20411;-40
2023/12/16 10:40:53;;;;;;;13.88;3.05;;;;;;;10.87;61.15;103231.06;5017400;28;20094;-40
2023/12/16 10:43:18;;;;;;;15.60;3.78;;;;;;;10.80;60.51;103230.31;5022037;28;20163;-41
2023/12/16 10:45:45;;;;;;;12.48;4.18;;;;;;;10.63;60.56;103219.22;5017907;28;20033;-40
2023/12/16 10:48:14;;;;;;;14.57;3.55;;;;;;;10.85;60.37;103217.06;5020380;28;20595;-40
2023/12/16 10:50:45;;;;;;;12.43;3.50;;;;;;;10.61;60.98;103216.63;5021030;28;20041;-40
2023/12/16 10:53:49;;;;;;;12.80;4.07;;;;;;;11.00;60.23;103222.94;5016325;28;20029;-40
2023/12/16 10:56:17;;;;;;;13.20;2.72;;;;;;;11.09;59.86;103220.97;5020774;28;20029;-39
2023/12/16 10:59:19;;;;;;;12.18;2.80;;;;;;;11.21;59.89;103211.97;5019170;28;20377;-39
2023/12/16 11:01:48;;;;;;;8.57;2.72;;;;;;;11.18;59.77;103224.34;5014406;28;20025;-39
2023/12/16 11:04:17;;;;;;;11.05;2.95;;;;;;;11.13;59.38;103213.88;5014170;28;20022;-40
2023/12/16 11:07:04;;;;;;;13.73;3.22;;;;;;;11.07;59.79;103214.03;5020199;28;20056;-40
2023/12/16 11:09:30;;;;;;;10.15;2.58;;;;;;;11.14;59.41;103212.97;5016968;28;20029;-40
2023/12/16 11:11:59;;;;;;;11.63;2.60;;;;;;;11.18;59.28;103206.75;5019038;28;20030;-41
2023/12/16 11:14:25;;;;;;;12.20;3.75;;;;;;;11.19;59.05;103205.84;5012923;28;20030;-41